Portada
METAR-TAF:

METAR-TAF

Aeroports :

Plataforma petroliera

Euro, Països Baixos

latitud: 51-59-52N, longitud: 3-16-30E, altitud: 18 m

Observació

L'informe es va fer fa 39 minuts, a les 02:25 UTC
Vent 10 kt del Est/Nord-Est
Temperatura 15°C
Humitat 100%
Pressió 1013 hPa
Visibilitat: 0900 m
xàfecs de pluja

METAR: EHSA 180225Z AUTO 07010KT 0900 -SHRA ///////// 15/15 Q1013 RERA W14/H3

Hora: 05:04 (03:04 UTC)


TAF: manca

Observacions i pronòstics meteorològics de més de 4000 aeroports (METAR i TAF).

Les estacions disponibles són els punts grocs i vermells al mapa.

Posi el ratolí al punt desitjat per veure el nom de l'estació.

Feu clic per veure les observacions i els pronòstics meteorològics.

Per canviar el mapa: feu clic els botons verds amb una creu de color negre per apropar; al botó verd amb un guió per allunyar la imatge; o en les fletxes verdes per a mapes adjacents.


METAR-TAF: